sensor_id;sensor_type;location;lat;lon;timestamp;pressure;altitude;pressure_sealevel;temperature;humidity
75065;BME280;63646;49.110;9.140;2023-02-01T05:02:36;99846.34;;;19.99;52.02
75065;BME280;63646;49.110;9.140;2023-02-01T05:05:02;99847.03;;;20.01;51.77
75065;BME280;63646;49.110;9.140;2023-02-01T05:07:27;99869.69;;;20.06;52.03
75065;BME280;63646;49.110;9.140;2023-02-01T05:09:53;99852.47;;;20.00;52.13
75065;BME280;63646;49.110;9.140;2023-02-01T05:12:18;99855.59;;;20.05;51.79
75065;BME280;63646;49.110;9.140;2023-02-01T05:15:02;99865.13;;;20.08;51.45
75065;BME280;63646;49.110;9.140;2023-02-01T05:17:28;99847.84;;;20.13;51.57
75065;BME280;63646;49.110;9.140;2023-02-01T05:19:54;99855.44;;;20.18;51.83
75065;BME280;63646;49.110;9.140;2023-02-01T05:22:19;99838.94;;;20.14;51.31
75065;BME280;63646;49.110;9.140;2023-02-01T05:24:45;99863.03;;;20.22;51.02
75065;BME280;63646;49.110;9.140;2023-02-01T05:27:10;99855.66;;;20.26;51.14
75065;BME280;63646;49.110;9.140;2023-02-01T05:29:38;99867.22;;;20.25;51.26
75065;BME280;63646;49.110;9.140;2023-02-01T05:32:04;99880.13;;;20.30;50.83
75065;BME280;63646;49.110;9.140;2023-02-01T05:34:29;99868.09;;;20.25;51.09
75065;BME280;63646;49.110;9.140;2023-02-01T05:36:55;99880.97;;;20.30;51.15
75065;BME280;63646;49.110;9.140;2023-02-01T05:39:20;99894.94;;;20.32;50.93
75065;BME280;63646;49.110;9.140;2023-02-01T05:41:45;99896.88;;;20.30;50.97
75065;BME280;63646;49.110;9.140;2023-02-01T05:44:11;99907.03;;;20.36;50.65
75065;BME280;63646;49.110;9.140;2023-02-01T05:46:37;99883.72;;;20.28;51.17
75065;BME280;63646;49.110;9.140;2023-02-01T05:49:03;99885.31;;;20.31;50.90
75065;BME280;63646;49.110;9.140;2023-02-01T05:51:29;99895.53;;;20.36;51.47
75065;BME280;63646;49.110;9.140;2023-02-01T05:53:54;99893.22;;;20.42;50.68
75065;BME280;63646;49.110;9.140;2023-02-01T05:56:20;99894.53;;;20.48;50.17
75065;BME280;63646;49.110;9.140;2023-02-01T05:58:46;99877.78;;;20.47;50.43
75065;BME280;63646;49.110;9.140;2023-02-01T06:01:11;99886.47;;;20.49;50.18
75065;BME280;63646;49.110;9.140;2023-02-01T06:03:38;99883.72;;;20.51;50.36
75065;BME280;63646;49.110;9.140;2023-02-01T06:06:06;99883.81;;;20.49;50.55
75065;BME280;63646;49.110;9.140;2023-02-01T06:08:32;99883.81;;;20.49;50.81
75065;BME280;63646;49.110;9.140;2023-02-01T06:11:03;99882.72;;;20.52;50.61
75065;BME280;63646;49.110;9.140;2023-02-01T06:13:29;99877.03;;;20.57;50.32
75065;BME280;63646;49.110;9.140;2023-02-01T06:15:54;99864.72;;;20.56;49.94
75065;BME280;63646;49.110;9.140;2023-02-01T06:18:21;99860.84;;;20.60;50.88
75065;BME280;63646;49.110;9.140;2023-02-01T06:20:52;99859.47;;;20.65;50.13
75065;BME280;63646;49.110;9.140;2023-02-01T06:23:18;99857.53;;;20.67;50.60
75065;BME280;63646;49.110;9.140;2023-02-01T06:25:43;99857.78;;;20.64;50.51
75065;BME280;63646;49.110;9.140;2023-02-01T06:28:10;99853.31;;;20.65;50.53
75065;BME280;63646;49.110;9.140;2023-02-01T06:30:35;99845.91;;;20.59;50.52
75065;BME280;63646;49.110;9.140;2023-02-01T06:33:01;99854.63;;;20.70;50.48
75065;BME280;63646;49.110;9.140;2023-02-01T06:35:26;99851.97;;;20.70;50.45
75065;BME280;63646;49.110;9.140;2023-02-01T06:37:52;99859.13;;;20.70;50.34
75065;BME280;63646;49.110;9.140;2023-02-01T06:40:17;99859.81;;;20.72;50.40
75065;BME280;63646;49.110;9.140;2023-02-01T06:42:43;99866.09;;;20.71;50.70
75065;BME280;63646;49.110;9.140;2023-02-01T06:45:11;99879.38;;;20.71;50.54
75065;BME280;63646;49.110;9.140;2023-02-01T06:47:37;99887.09;;;20.74;50.33
75065;BME280;63646;49.110;9.140;2023-02-01T06:50:03;99895.06;;;20.74;50.29
75065;BME280;63646;49.110;9.140;2023-02-01T06:52:28;99897.72;;;20.74;50.21
75065;BME280;63646;49.110;9.140;2023-02-01T06:54:54;99909.44;;;20.71;50.97
75065;BME280;63646;49.110;9.140;2023-02-01T06:57:19;99893.38;;;20.73;50.51
75065;BME280;63646;49.110;9.140;2023-02-01T06:59:45;99911.00;;;20.74;50.02
75065;BME280;63646;49.110;9.140;2023-02-01T07:02:13;99898.69;;;20.73;50.76
75065;BME280;63646;49.110;9.140;2023-02-01T07:04:38;99915.56;;;20.72;50.45
75065;BME280;63646;49.110;9.140;2023-02-01T07:07:04;99921.47;;;20.75;50.40
75065;BME280;63646;49.110;9.140;2023-02-01T07:09:29;99906.06;;;20.69;50.23
75065;BME280;63646;49.110;9.140;2023-02-01T07:11:55;99912.81;;;20.73;50.63
75065;BME280;63646;49.110;9.140;2023-02-01T07:14:20;99904.94;;;20.72;51.01
75065;BME280;63646;49.110;9.140;2023-02-01T07:16:45;99903.13;;;20.72;50.49
75065;BME280;63646;49.110;9.140;2023-02-01T07:19:11;99904.44;;;20.78;50.78
75065;BME280;63646;49.110;9.140;2023-02-01T07:21:36;99906.53;;;20.74;50.60
75065;BME280;63646;49.110;9.140;2023-02-01T07:24:02;99922.59;;;20.73;51.23
75065;BME280;63646;49.110;9.140;2023-02-01T07:26:28;99921.03;;;20.70;51.37
75065;BME280;63646;49.110;9.140;2023-02-01T07:28:53;99927.44;;;20.68;50.81
75065;BME280;63646;49.110;9.140;2023-02-01T07:31:19;99928.50;;;20.65;50.90
75065;BME280;63646;49.110;9.140;2023-02-01T07:33:47;99929.75;;;20.61;50.98
75065;BME280;63646;49.110;9.140;2023-02-01T07:36:16;99932.88;;;20.66;51.10
75065;BME280;63646;49.110;9.140;2023-02-01T07:38:42;99930.56;;;20.62;51.11
75065;BME280;63646;49.110;9.140;2023-02-01T07:41:08;99918.47;;;20.69;51.04
75065;BME280;63646;49.110;9.140;2023-02-01T07:43:34;99921.91;;;20.60;51.11
75065;BME280;63646;49.110;9.140;2023-02-01T07:46:00;99919.00;;;20.63;50.87
75065;BME280;63646;49.110;9.140;2023-02-01T07:48:26;99909.72;;;20.57;50.90
75065;BME280;63646;49.110;9.140;2023-02-01T07:51:06;99919.72;;;20.65;50.31
75065;BME280;63646;49.110;9.140;2023-02-01T07:53:32;99917.31;;;20.62;50.53
75065;BME280;63646;49.110;9.140;2023-02-01T07:55:58;99912.97;;;20.61;50.57
75065;BME280;63646;49.110;9.140;2023-02-01T07:58:25;99916.72;;;20.58;50.89
75065;BME280;63646;49.110;9.140;2023-02-01T08:00:50;99907.91;;;20.58;50.70
75065;BME280;63646;49.110;9.140;2023-02-01T08:03:35;99905.00;;;20.61;50.62
75065;BME280;63646;49.110;9.140;2023-02-01T08:06:00;99905.16;;;20.59;50.40
75065;BME280;63646;49.110;9.140;2023-02-01T08:08:26;99906.47;;;20.54;50.81
75065;BME280;63646;49.110;9.140;2023-02-01T08:10:51;99901.31;;;20.52;50.82
75065;BME280;63646;49.110;9.140;2023-02-01T08:13:16;99907.06;;;20.57;50.66
75065;BME280;63646;49.110;9.140;2023-02-01T08:15:44;99915.88;;;20.58;50.95
75065;BME280;63646;49.110;9.140;2023-02-01T08:18:09;99932.66;;;20.58;50.59
75065;BME280;63646;49.110;9.140;2023-02-01T08:20:36;99929.44;;;20.55;50.95
75065;BME280;63646;49.110;9.140;2023-02-01T08:23:07;99945.22;;;20.56;50.81
75065;BME280;63646;49.110;9.140;2023-02-01T08:25:34;99955.69;;;20.58;50.64
75065;BME280;63646;49.110;9.140;2023-02-01T08:28:00;99953.88;;;20.58;50.75
75065;BME280;63646;49.110;9.140;2023-02-01T08:30:25;99963.41;;;20.61;50.51
75065;BME280;63646;49.110;9.140;2023-02-01T08:32:52;99952.31;;;20.67;50.72
75065;BME280;63646;49.110;9.140;2023-02-01T08:35:18;99965.19;;;20.71;50.43
75065;BME280;63646;49.110;9.140;2023-02-01T08:37:43;99960.13;;;20.68;50.39
75065;BME280;63646;49.110;9.140;2023-02-01T08:40:13;99959.78;;;20.73;50.75
75065;BME280;63646;49.110;9.140;2023-02-01T08:42:39;99952.09;;;20.59;46.09
75065;BME280;63646;49.110;9.140;2023-02-01T08:45:27;99965.69;;;20.65;50.00
75065;BME280;63646;49.110;9.140;2023-02-01T08:47:59;99959.28;;;20.68;50.15
75065;BME280;63646;49.110;9.140;2023-02-01T08:50:25;99945.91;;;20.58;49.86
75065;BME280;63646;49.110;9.140;2023-02-01T08:52:51;99960.03;;;20.70;49.92
75065;BME280;63646;49.110;9.140;2023-02-01T08:55:17;99940.94;;;20.65;49.93
75065;BME280;63646;49.110;9.140;2023-02-01T08:57:43;99962.97;;;20.77;49.74
75065;BME280;63646;49.110;9.140;2023-02-01T09:00:13;99960.22;;;20.78;49.51
75065;BME280;63646;49.110;9.140;2023-02-01T09:02:39;99963.72;;;20.79;49.63
75065;BME280;63646;49.110;9.140;2023-02-01T09:05:05;99959.72;;;20.84;49.65
75065;BME280;63646;49.110;9.140;2023-02-01T09:07:33;99950.19;;;20.82;49.73
75065;BME280;63646;49.110;9.140;2023-02-01T09:09:59;99966.81;;;20.84;49.73
75065;BME280;63646;49.110;9.140;2023-02-01T09:12:29;99959.72;;;20.84;49.69
75065;BME280;63646;49.110;9.140;2023-02-01T09:14:56;99958.75;;;20.85;49.10
75065;BME280;63646;49.110;9.140;2023-02-01T09:17:24;99948.50;;;20.81;49.70
75065;BME280;63646;49.110;9.140;2023-02-01T09:19:50;99963.91;;;20.87;49.34
75065;BME280;63646;49.110;9.140;2023-02-01T09:22:15;99964.06;;;20.85;49.40
75065;BME280;63646;49.110;9.140;2023-02-01T09:24:41;99980.69;;;20.87;49.91
75065;BME280;63646;49.110;9.140;2023-02-01T09:27:06;99968.38;;;20.86;49.83
75065;BME280;63646;49.110;9.140;2023-02-01T09:29:32;99983.25;;;20.89;49.81
75065;BME280;63646;49.110;9.140;2023-02-01T09:31:57;99986.00;;;20.87;49.81
75065;BME280;63646;49.110;9.140;2023-02-01T09:34:23;99990.47;;;20.87;49.72
75065;BME280;63646;49.110;9.140;2023-02-01T09:36:48;99976.59;;;20.83;49.42
75065;BME280;63646;49.110;9.140;2023-02-01T09:39:14;99987.13;;;20.85;49.89
75065;BME280;63646;49.110;9.140;2023-02-01T09:47:14;99973.25;;;20.81;50.00
75065;BME280;63646;49.110;9.140;2023-02-01T09:49:54;99977.34;;;20.85;49.75
75065;BME280;63646;49.110;9.140;2023-02-01T09:52:38;99988.94;;;20.84;49.77
75065;BME280;63646;49.110;9.140;2023-02-01T09:55:16;99993.28;;;20.85;50.58
75065;BME280;63646;49.110;9.140;2023-02-01T09:58:04;100000.41;;;20.85;49.89
75065;BME280;63646;49.110;9.140;2023-02-01T10:00:36;100008.38;;;20.85;49.94
75065;BME280;63646;49.110;9.140;2023-02-01T10:03:03;100007.53;;;20.84;49.80
75065;BME280;63646;49.110;9.140;2023-02-01T10:11:13;100023.47;;;20.84;49.62
75065;BME280;63646;49.110;9.140;2023-02-01T10:16:37;100034.19;;;20.83;50.34
75065;BME280;63646;49.110;9.140;2023-02-01T10:22:09;100030.94;;;20.79;50.53
75065;BME280;63646;49.110;9.140;2023-02-01T10:24:46;100034.34;;;20.81;50.00
75065;BME280;63646;49.110;9.140;2023-02-01T10:27:24;100032.63;;;20.80;49.98
75065;BME280;63646;49.110;9.140;2023-02-01T10:29:59;100034.69;;;20.77;50.25
75065;BME280;63646;49.110;9.140;2023-02-01T10:32:31;100026.16;;;20.73;50.34
75065;BME280;63646;49.110;9.140;2023-02-01T10:35:00;100047.97;;;20.77;50.08
75065;BME280;63646;49.110;9.140;2023-02-01T10:37:33;100043.78;;;20.74;50.39
75065;BME280;63646;49.110;9.140;2023-02-01T10:40:21;100050.78;;;20.75;50.47
75065;BME280;63646;49.110;9.140;2023-02-01T10:42:48;100045.47;;;20.75;50.50
75065;BME280;63646;49.110;9.140;2023-02-01T10:45:21;100048.94;;;20.75;50.12
75065;BME280;63646;49.110;9.140;2023-02-01T10:47:49;100040.00;;;20.77;50.14
75065;BME280;63646;49.110;9.140;2023-02-01T10:53:08;100047.97;;;20.77;50.20
75065;BME280;63646;49.110;9.140;2023-02-01T10:55:54;100052.34;;;20.78;50.31
75065;BME280;63646;49.110;9.140;2023-02-01T10:58:31;100031.34;;;20.74;50.04
75065;BME280;63646;49.110;9.140;2023-02-01T11:03:45;100023.97;;;20.78;50.41
75065;BME280;63646;49.110;9.140;2023-02-01T11:08:54;100021.06;;;20.81;50.09
75065;BME280;63646;49.110;9.140;2023-02-01T11:11:20;100007.78;;;20.81;50.17
75065;BME280;63646;49.110;9.140;2023-02-01T11:13:56;100016.44;;;20.83;51.40
75065;BME280;63646;49.110;9.140;2023-02-01T11:16:29;99988.47;;;20.79;51.67
75065;BME280;63646;49.110;9.140;2023-02-01T11:18:55;100001.09;;;20.87;51.84
75065;BME280;63646;49.110;9.140;2023-02-01T11:21:21;99994.72;;;20.89;50.83
75065;BME280;63646;49.110;9.140;2023-02-01T11:23:47;99980.00;;;20.85;51.02
75065;BME280;63646;49.110;9.140;2023-02-01T11:26:27;99984.81;;;20.91;50.40
75065;BME280;63646;49.110;9.140;2023-02-01T11:29:03;99989.13;;;20.92;50.38
75065;BME280;63646;49.110;9.140;2023-02-01T11:31:30;99984.66;;;20.93;50.64
75065;BME280;63646;49.110;9.140;2023-02-01T11:34:19;99977.69;;;20.92;50.94
75065;BME280;63646;49.110;9.140;2023-02-01T11:36:47;99960.63;;;20.94;50.65
75065;BME280;63646;49.110;9.140;2023-02-01T11:39:23;99956.28;;;20.93;50.50
75065;BME280;63646;49.110;9.140;2023-02-01T11:44:41;99950.84;;;20.95;50.00
75065;BME280;63646;49.110;9.140;2023-02-01T11:49:53;99949.03;;;20.95;50.02
75065;BME280;63646;49.110;9.140;2023-02-01T12:05:31;99930.06;;;21.00;51.23
75065;BME280;63646;49.110;9.140;2023-02-01T12:11:16;99908.63;;;20.92;51.88
75065;BME280;63646;49.110;9.140;2023-02-01T12:16:37;99921.00;;;21.03;52.08
75065;BME280;63646;49.110;9.140;2023-02-01T12:31:31;99940.28;;;21.05;51.81
75065;BME280;63646;49.110;9.140;2023-02-01T12:46:49;99915.13;;;21.09;51.17
75065;BME280;63646;49.110;9.140;2023-02-01T12:49:29;99918.53;;;21.11;52.04
75065;BME280;63646;49.110;9.140;2023-02-01T12:52:01;99915.13;;;21.09;51.95
75065;BME280;63646;49.110;9.140;2023-02-01T12:54:52;99919.63;;;21.08;52.12
75065;BME280;63646;49.110;9.140;2023-02-01T12:57:32;99918.53;;;21.11;51.60
75065;BME280;63646;49.110;9.140;2023-02-01T13:00:25;99914.88;;;21.12;52.09
75065;BME280;63646;49.110;9.140;2023-02-01T13:05:24;99913.31;;;21.09;51.87
75065;BME280;63646;49.110;9.140;2023-02-01T13:08:07;99918.03;;;21.06;51.76
75065;BME280;63646;49.110;9.140;2023-02-01T13:10:40;99929.66;;;21.05;51.90
75065;BME280;63646;49.110;9.140;2023-02-01T13:15:43;99914.44;;;21.07;51.87
75065;BME280;63646;49.110;9.140;2023-02-01T13:18:18;99899.72;;;21.03;51.99
75065;BME280;63646;49.110;9.140;2023-02-01T13:24:03;99908.41;;;21.05;51.41
75065;BME280;63646;49.110;9.140;2023-02-01T13:26:29;99900.44;;;21.05;51.50
75065;BME280;63646;49.110;9.140;2023-02-01T13:29:09;99889.38;;;20.99;51.25
75065;BME280;63646;49.110;9.140;2023-02-01T13:37:28;99877.56;;;20.92;48.32
75065;BME280;63646;49.110;9.140;2023-02-01T13:45:20;99875.31;;;20.88;51.42
75065;BME280;63646;49.110;9.140;2023-02-01T13:47:49;99854.56;;;20.82;51.28
75065;BME280;63646;49.110;9.140;2023-02-01T13:50:37;99862.41;;;20.83;51.68
75065;BME280;63646;49.110;9.140;2023-02-01T13:55:59;99874.44;;;20.87;51.68
75065;BME280;63646;49.110;9.140;2023-02-01T13:58:42;99870.09;;;20.86;51.60
75065;BME280;63646;49.110;9.140;2023-02-01T14:03:59;99877.97;;;20.88;51.74
75065;BME280;63646;49.110;9.140;2023-02-01T14:09:15;99877.81;;;20.89;51.83
75065;BME280;63646;49.110;9.140;2023-02-01T14:11:55;99876.72;;;20.92;51.84
75065;BME280;63646;49.110;9.140;2023-02-01T14:19:26;99900.75;;;20.90;51.96
75065;BME280;63646;49.110;9.140;2023-02-01T14:21:54;99894.50;;;20.91;51.60
75065;BME280;63646;49.110;9.140;2023-02-01T14:24:34;99908.88;;;20.89;51.86
75065;BME280;63646;49.110;9.140;2023-02-01T14:29:39;99905.22;;;20.90;51.44
75065;BME280;63646;49.110;9.140;2023-02-01T14:32:19;99912.09;;;20.92;51.62
75065;BME280;63646;49.110;9.140;2023-02-01T14:42:24;99898.50;;;20.86;51.86
75065;BME280;63646;49.110;9.140;2023-02-01T14:44:52;99900.31;;;20.85;51.95
75065;BME280;63646;49.110;9.140;2023-02-01T14:49:55;99890.66;;;20.84;51.51
75065;BME280;63646;49.110;9.140;2023-02-01T14:52:39;99904.13;;;20.92;51.58
75065;BME280;63646;49.110;9.140;2023-02-01T14:57:43;99896.47;;;20.78;50.55
75065;BME280;63646;49.110;9.140;2023-02-01T15:00:31;99888.84;;;20.85;51.33
75065;BME280;63646;49.110;9.140;2023-02-01T15:06:22;99894.59;;;20.90;50.89
75065;BME280;63646;49.110;9.140;2023-02-01T15:08:48;99891.84;;;20.91;51.03
75065;BME280;63646;49.110;9.140;2023-02-01T15:11:17;99880.75;;;20.86;50.73
75065;BME280;63646;49.110;9.140;2023-02-01T15:13:51;99897.59;;;20.96;50.69
75065;BME280;63646;49.110;9.140;2023-02-01T15:16:20;99893.84;;;20.99;50.65
75065;BME280;63646;49.110;9.140;2023-02-01T15:18:47;99891.53;;;20.94;50.99
75065;BME280;63646;49.110;9.140;2023-02-01T15:21:19;99899.00;;;21.01;50.92
75065;BME280;63646;49.110;9.140;2023-02-01T15:23:45;99895.00;;;21.06;50.71
75065;BME280;63646;49.110;9.140;2023-02-01T15:26:33;99900.31;;;21.06;50.71
75065;BME280;63646;49.110;9.140;2023-02-01T15:29:02;99893.28;;;21.05;50.62
75065;BME280;63646;49.110;9.140;2023-02-01T15:31:38;99891.47;;;21.06;50.93
75065;BME280;63646;49.110;9.140;2023-02-01T15:34:05;99904.75;;;21.06;50.57
75065;BME280;63646;49.110;9.140;2023-02-01T15:36:31;99902.38;;;21.03;50.92
75065;BME280;63646;49.110;9.140;2023-02-01T15:39:22;99917.09;;;21.07;50.49
75065;BME280;63646;49.110;9.140;2023-02-01T15:42:01;99911.91;;;21.05;50.46
75065;BME280;63646;49.110;9.140;2023-02-01T15:44:40;99915.53;;;21.04;50.79
75065;BME280;63646;49.110;9.140;2023-02-01T15:47:13;99917.84;;;20.97;51.06
75065;BME280;63646;49.110;9.140;2023-02-01T15:49:41;99927.97;;;21.04;51.11
75065;BME280;63646;49.110;9.140;2023-02-01T15:52:27;99936.94;;;21.03;50.93
75065;BME280;63646;49.110;9.140;2023-02-01T15:55:00;99945.84;;;21.02;50.91
75065;BME280;63646;49.110;9.140;2023-02-01T15:57:33;99938.13;;;20.98;50.95
75065;BME280;63646;49.110;9.140;2023-02-01T16:02:57;99932.13;;;20.96;51.20
75065;BME280;63646;49.110;9.140;2023-02-01T16:05:42;99938.03;;;21.00;51.46
75065;BME280;63646;49.110;9.140;2023-02-01T16:08:10;99931.88;;;20.99;51.19
75065;BME280;63646;49.110;9.140;2023-02-01T16:10:47;99945.16;;;20.99;51.14
75065;BME280;63646;49.110;9.140;2023-02-01T16:13:14;99938.66;;;20.92;50.74
75065;BME280;63646;49.110;9.140;2023-02-01T16:15:40;99921.06;;;20.91;51.48
75065;BME280;63646;49.110;9.140;2023-02-01T16:18:06;99936.00;;;20.92;51.91
75065;BME280;63646;49.110;9.140;2023-02-01T16:20:36;99922.00;;;20.90;51.46
75065;BME280;63646;49.110;9.140;2023-02-01T16:23:03;99934.78;;;20.96;51.68
75065;BME280;63646;49.110;9.140;2023-02-01T16:25:29;99926.81;;;20.96;51.40
75065;BME280;63646;49.110;9.140;2023-02-01T16:28:00;99931.88;;;20.99;51.51
75065;BME280;63646;49.110;9.140;2023-02-01T16:30:26;99932.13;;;20.96;51.50
75065;BME280;63646;49.110;9.140;2023-02-01T16:32:53;99928.50;;;20.97;51.31
75065;BME280;63646;49.110;9.140;2023-02-01T16:35:25;99932.13;;;20.96;51.47
75065;BME280;63646;49.110;9.140;2023-02-01T16:37:51;99930.31;;;20.97;51.61
75065;BME280;63646;49.110;9.140;2023-02-01T16:40:20;99930.16;;;20.98;51.65
75065;BME280;63646;49.110;9.140;2023-02-01T16:42:51;99932.81;;;20.98;51.61
75065;BME280;63646;49.110;9.140;2023-02-01T16:45:18;99940.50;;;20.92;48.12
75065;BME280;63646;49.110;9.140;2023-02-01T16:47:50;99940.00;;;20.11;43.40
75065;BME280;63646;49.110;9.140;2023-02-01T16:50:22;99933.25;;;20.18;46.00
75065;BME280;63646;49.110;9.140;2023-02-01T16:52:48;99935.72;;;20.31;48.94
75065;BME280;63646;49.110;9.140;2023-02-01T16:55:15;99938.88;;;20.36;49.60
75065;BME280;63646;49.110;9.140;2023-02-01T16:57:43;99940.41;;;20.50;49.28
75065;BME280;63646;49.110;9.140;2023-02-01T17:00:10;99935.06;;;20.61;49.11
75065;BME280;63646;49.110;9.140;2023-02-01T17:02:38;99901.97;;;20.65;48.30
75065;BME280;63646;49.110;9.140;2023-02-01T17:05:10;99905.34;;;20.67;47.72
75065;BME280;63646;49.110;9.140;2023-02-01T17:07:36;99899.06;;;20.68;47.81
75065;BME280;63646;49.110;9.140;2023-02-01T17:10:18;99878.19;;;20.64;48.13
75065;BME280;63646;49.110;9.140;2023-02-01T17:12:47;99896.41;;;20.68;48.74
75065;BME280;63646;49.110;9.140;2023-02-01T17:15:12;99893.38;;;20.73;49.40
75065;BME280;63646;49.110;9.140;2023-02-01T17:17:38;99891.16;;;20.78;48.44
75065;BME280;63646;49.110;9.140;2023-02-01T17:20:09;99924.59;;;20.81;49.40
75065;BME280;63646;49.110;9.140;2023-02-01T17:22:42;99934.25;;;20.82;50.06
75065;BME280;63646;49.110;9.140;2023-02-01T17:25:15;99930.50;;;20.84;49.76
75065;BME280;63646;49.110;9.140;2023-02-01T17:27:41;99938.72;;;20.81;50.46
75065;BME280;63646;49.110;9.140;2023-02-01T17:30:07;99933.16;;;20.84;50.21
75065;BME280;63646;49.110;9.140;2023-02-01T17:32:35;99946.63;;;20.92;50.47
75065;BME280;63646;49.110;9.140;2023-02-01T17:35:00;99945.50;;;20.95;50.40
75065;BME280;63646;49.110;9.140;2023-02-01T17:37:33;99930.44;;;20.95;50.28
75065;BME280;63646;49.110;9.140;2023-02-01T17:39:59;99934.59;;;20.88;50.78
75065;BME280;63646;49.110;9.140;2023-02-01T17:42:27;99939.94;;;20.98;50.47
75065;BME280;63646;49.110;9.140;2023-02-01T17:44:56;99947.81;;;20.99;50.25
75065;BME280;63646;49.110;9.140;2023-02-01T17:47:22;99946.09;;;20.98;50.73
75065;BME280;63646;49.110;9.140;2023-02-01T17:49:48;99919.09;;;20.93;50.35
75065;BME280;63646;49.110;9.140;2023-02-01T17:52:23;99934.53;;;20.99;50.71
75065;BME280;63646;49.110;9.140;2023-02-01T17:54:48;99929.31;;;20.98;51.24
75065;BME280;63646;49.110;9.140;2023-02-01T17:57:18;99910.72;;;20.98;51.03
75065;BME280;63646;49.110;9.140;2023-02-01T17:59:43;99915.38;;;21.06;50.79
75065;BME280;63646;49.110;9.140;2023-02-01T18:02:19;99901.41;;;21.04;50.43
75065;BME280;63646;49.110;9.140;2023-02-01T18:04:44;99913.47;;;21.08;50.54
75065;BME280;63646;49.110;9.140;2023-02-01T18:07:10;99919.75;;;21.07;50.79
75065;BME280;63646;49.110;9.140;2023-02-01T18:09:35;99918.78;;;21.08;50.58
75065;BME280;63646;49.110;9.140;2023-02-01T18:12:03;99915.69;;;21.03;50.84
75065;BME280;63646;49.110;9.140;2023-02-01T18:14:30;99920.00;;;21.04;50.52
75065;BME280;63646;49.110;9.140;2023-02-01T18:16:55;99914.50;;;20.95;51.32
75065;BME280;63646;49.110;9.140;2023-02-01T18:19:20;99920.00;;;21.04;50.99
75065;BME280;63646;49.110;9.140;2023-02-01T18:21:46;99920.44;;;21.09;50.75
75065;BME280;63646;49.110;9.140;2023-02-01T18:24:12;99910.06;;;21.06;50.59
75065;BME280;63646;49.110;9.140;2023-02-01T18:26:39;99923.00;;;21.10;50.37
75065;BME280;63646;49.110;9.140;2023-02-01T18:29:04;99915.13;;;21.09;50.63
75065;BME280;63646;49.110;9.140;2023-02-01T18:31:31;99910.81;;;21.08;50.46
75065;BME280;63646;49.110;9.140;2023-02-01T18:33:58;99908.59;;;21.13;50.66
75065;BME280;63646;49.110;9.140;2023-02-01T18:36:25;99902.56;;;21.11;50.63
75065;BME280;63646;49.110;9.140;2023-02-01T18:38:51;99911.50;;;21.10;50.67
75065;BME280;63646;49.110;9.140;2023-02-01T18:41:19;99908.00;;;21.09;51.35
75065;BME280;63646;49.110;9.140;2023-02-01T18:43:46;99905.88;;;21.03;53.11
75065;BME280;63646;49.110;9.140;2023-02-01T18:46:12;99916.38;;;21.05;53.05
75065;BME280;63646;49.110;9.140;2023-02-01T18:48:38;99911.63;;;21.08;53.17
75065;BME280;63646;49.110;9.140;2023-02-01T18:51:04;99902.44;;;21.12;52.23
75065;BME280;63646;49.110;9.140;2023-02-01T18:53:33;99899.66;;;21.14;52.43
75065;BME280;63646;49.110;9.140;2023-02-01T18:55:58;99893.22;;;21.16;52.20
75065;BME280;63646;49.110;9.140;2023-02-01T18:58:24;99894.06;;;21.17;51.92
75065;BME280;63646;49.110;9.140;2023-02-01T19:00:55;99884.00;;;21.20;51.47
75065;BME280;63646;49.110;9.140;2023-02-01T19:03:22;99898.44;;;21.18;51.66
75065;BME280;63646;49.110;9.140;2023-02-01T19:05:53;99880.50;;;21.20;51.76
75065;BME280;63646;49.110;9.140;2023-02-01T19:08:22;99893.69;;;21.21;51.47
75065;BME280;63646;49.110;9.140;2023-02-01T19:10:51;99889.31;;;21.20;51.63
75065;BME280;63646;49.110;9.140;2023-02-01T19:13:17;99894.53;;;21.22;51.53
75065;BME280;63646;49.110;9.140;2023-02-01T19:15:45;99897.03;;;21.23;51.61
75065;BME280;63646;49.110;9.140;2023-02-01T19:18:10;99910.22;;;21.25;51.73
75065;BME280;63646;49.110;9.140;2023-02-01T19:20:37;99907.09;;;21.20;51.20
75065;BME280;63646;49.110;9.140;2023-02-01T19:23:11;99916.81;;;21.10;51.41
75065;BME280;63646;49.110;9.140;2023-02-01T19:25:43;99914.28;;;21.08;53.63
75065;BME280;63646;49.110;9.140;2023-02-01T19:28:09;99922.66;;;21.04;53.23
75065;BME280;63646;49.110;9.140;2023-02-01T19:30:34;99915.38;;;21.06;53.38
75065;BME280;63646;49.110;9.140;2023-02-01T19:33:00;99918.25;;;21.14;53.11
75065;BME280;63646;49.110;9.140;2023-02-01T19:35:27;99921.88;;;21.13;53.12
75065;BME280;63646;49.110;9.140;2023-02-01T19:37:53;99917.53;;;21.12;52.78
75065;BME280;63646;49.110;9.140;2023-02-01T19:40:19;99930.31;;;21.18;52.65
75065;BME280;63646;49.110;9.140;2023-02-01T19:42:45;99931.25;;;21.17;52.39
75065;BME280;63646;49.110;9.140;2023-02-01T19:45:11;99943.34;;;21.21;51.91
75065;BME280;63646;49.110;9.140;2023-02-01T19:47:37;99922.72;;;21.13;51.92
75065;BME280;63646;49.110;9.140;2023-02-01T19:50:03;99932.25;;;21.16;52.67
75065;BME280;63646;49.110;9.140;2023-02-01T19:52:32;99935.88;;;21.15;52.10
75065;BME280;63646;49.110;9.140;2023-02-01T19:54:58;99935.75;;;21.16;52.21
75065;BME280;63646;49.110;9.140;2023-02-01T19:57:25;99930.31;;;21.18;52.46
75065;BME280;63646;49.110;9.140;2023-02-01T19:59:50;99932.81;;;21.19;52.81
75065;BME280;63646;49.110;9.140;2023-02-01T20:02:16;99922.72;;;21.13;52.17
75065;BME280;63646;49.110;9.140;2023-02-01T20:04:41;99935.22;;;21.22;52.47
75065;BME280;63646;49.110;9.140;2023-02-01T20:07:13;99931.41;;;21.15;53.05
75065;BME280;63646;49.110;9.140;2023-02-01T20:09:41;99949.34;;;21.23;52.14
75065;BME280;63646;49.110;9.140;2023-02-01T20:12:08;99947.22;;;21.17;51.77
75065;BME280;63646;49.110;9.140;2023-02-01T20:14:36;99952.66;;;21.15;52.06
75065;BME280;63646;49.110;9.140;2023-02-01T20:17:01;99951.84;;;21.15;51.86
75065;BME280;63646;49.110;9.140;2023-02-01T20:19:27;99966.22;;;21.12;51.74
75065;BME280;63646;49.110;9.140;2023-02-01T20:21:55;99951.34;;;21.10;51.85